Time;durP1;ratioP1;P1;durP2;ratioP2;P2;SDS_P1;SDS_P2;PMS_P1;PMS_P2;Temp;Humidity;BMP_temperature;BMP_pressure;BME280_temperature;BME280_humidity;BME280_pressure;Samples;Min_cycle;Max_cycle;Signal;HPM_P1;HPM_P2
2022/03/01 00:00:01;;;;;;;8.60;4.07;;;;;;;8.35;36.98;102818.88;5068921;28;20048;-60
2022/03/01 00:02:28;;;;;;;7.82;3.90;;;;;;;8.31;36.90;102820.69;5071303;28;20045;-64
2022/03/01 00:04:55;;;;;;;8.50;4.32;;;;;;;8.30;36.69;102821.59;5071694;28;20048;-60
2022/03/01 00:07:21;;;;;;;6.75;4.40;;;;;;;8.29;36.87;102825.09;5070497;28;20458;-62
2022/03/01 00:09:48;;;;;;;9.85;4.45;;;;;;;8.29;36.88;102830.31;5071469;28;20044;-61
2022/03/01 00:12:15;;;;;;;9.32;4.65;;;;;;;8.26;36.76;102827.72;5071776;28;20051;-60
2022/03/01 00:14:41;;;;;;;14.70;4.97;;;;;;;8.26;36.80;102832.97;5071498;28;20072;-60
2022/03/01 00:17:08;;;;;;;10.38;4.60;;;;;;;8.29;36.62;102830.31;5071663;28;20053;-60
2022/03/01 00:19:35;;;;;;;9.68;4.30;;;;;;;8.27;36.52;102839.06;5071590;28;20087;-61
2022/03/01 00:22:02;;;;;;;6.72;4.07;;;;;;;8.25;36.54;102839.09;5071771;28;20040;-60
2022/03/01 00:24:28;;;;;;;10.10;5.20;;;;;;;8.20;36.69;102838.25;5070258;28;20041;-60
2022/03/01 00:26:55;;;;;;;7.57;3.95;;;;;;;8.18;36.55;102843.53;5071547;28;20067;-63
2022/03/01 00:29:22;;;;;;;6.68;4.63;;;;;;;8.20;36.39;102845.25;5071463;28;20056;-60
2022/03/01 00:31:48;;;;;;;7.28;4.65;;;;;;;8.23;36.04;102850.44;5073299;28;20113;-61
2022/03/01 00:34:15;;;;;;;6.85;4.60;;;;;;;8.18;36.17;102845.28;5075673;28;20052;-60
2022/03/01 00:36:43;;;;;;;7.82;4.65;;;;;;;8.17;36.16;102846.16;5075592;28;20049;-62
2022/03/01 00:39:09;;;;;;;11.98;5.13;;;;;;;8.22;36.03;102838.28;5075289;28;20561;-59
2022/03/01 00:41:38;;;;;;;7.68;4.57;;;;;;;8.25;35.74;102841.72;5074428;28;20043;-60
2022/03/01 00:44:05;;;;;;;7.70;4.38;;;;;;;8.27;35.78;102839.94;5075524;28;20037;-60
2022/03/01 00:46:32;;;;;;;7.00;4.68;;;;;;;8.27;35.73;102839.06;5074572;28;20040;-61
2022/03/01 00:48:59;;;;;;;7.70;4.85;;;;;;;8.27;35.64;102844.31;5075329;28;20063;-61
2022/03/01 00:51:27;;;;;;;8.77;4.20;;;;;;;8.20;35.75;102853.09;5075070;28;20049;-60
2022/03/01 00:53:54;;;;;;;6.82;4.38;;;;;;;8.20;35.67;102855.72;5074875;28;20083;-60
2022/03/01 00:56:21;;;;;;;6.63;4.45;;;;;;;8.24;35.61;102855.66;5075309;28;20074;-60
2022/03/01 00:58:47;;;;;;;8.05;3.97;;;;;;;8.26;35.51;102859.13;5073646;28;20056;-59
2022/03/01 01:01:14;;;;;;;7.88;4.35;;;;;;;8.32;35.20;102858.19;5075068;28;20057;-60
2022/03/01 01:03:41;;;;;;;7.50;4.68;;;;;;;8.28;35.34;102851.28;5074833;28;20047;-62
2022/03/01 01:06:08;;;;;;;8.90;4.60;;;;;;;8.23;35.58;102840.84;5074988;28;20036;-60
2022/03/01 01:08:34;;;;;;;7.95;4.38;;;;;;;8.24;35.71;102841.72;5074886;28;20573;-60
2022/03/01 01:11:01;;;;;;;8.57;4.60;;;;;;;8.20;35.65;102843.50;5074752;28;20040;-60
2022/03/01 01:13:30;;;;;;;9.13;4.13;;;;;;;8.21;35.66;102847.00;5074887;28;20045;-60
2022/03/01 01:15:57;;;;;;;6.47;4.22;;;;;;;8.19;35.83;102841.78;5073737;28;20481;-60
2022/03/01 01:18:24;;;;;;;6.63;4.38;;;;;;;8.17;35.82;102841.78;5074632;28;20049;-60
2022/03/01 01:20:51;;;;;;;11.50;4.38;;;;;;;8.16;35.75;102839.19;5074672;28;20045;-59
2022/03/01 01:23:18;;;;;;;9.63;4.78;;;;;;;8.10;35.93;102839.28;5074391;28;20076;-60
2022/03/01 01:25:45;;;;;;;9.07;4.47;;;;;;;8.09;36.08;102837.56;5074580;28;20059;-60
2022/03/01 01:28:13;;;;;;;8.98;4.80;;;;;;;8.11;36.12;102838.38;5074070;28;20096;-62
2022/03/01 01:30:40;;;;;;;7.82;4.68;;;;;;;8.07;36.21;102842.78;5074522;28;20040;-60
2022/03/01 01:33:06;;;;;;;6.82;4.43;;;;;;;8.08;36.42;102843.66;5073848;28;20048;-63
2022/03/01 01:35:35;;;;;;;9.43;4.60;;;;;;;8.07;36.49;102839.31;5074397;28;20037;-62
2022/03/01 01:38:02;;;;;;;7.15;4.60;;;;;;;8.04;36.25;102845.44;5074379;28;20052;-60
2022/03/01 01:40:31;;;;;;;7.75;5.20;;;;;;;8.06;36.57;102842.81;5074382;28;20041;-60
2022/03/01 01:42:58;;;;;;;6.85;4.32;;;;;;;8.06;36.32;102850.66;5073609;28;20115;-64
2022/03/01 01:45:26;;;;;;;7.43;4.35;;;;;;;8.03;36.57;102843.72;5074155;28;20053;-60
2022/03/01 01:47:54;;;;;;;7.30;4.72;;;;;;;8.03;36.51;102851.56;5074253;28;20048;-60
2022/03/01 01:50:21;;;;;;;6.82;4.72;;;;;;;8.05;36.61;102844.56;5072140;28;20044;-59
2022/03/01 01:52:50;;;;;;;6.22;4.60;;;;;;;8.02;36.59;102844.59;5073733;28;20110;-60
2022/03/01 01:55:18;;;;;;;6.28;4.40;;;;;;;8.02;36.65;102841.97;5074526;28;20052;-62
2022/03/01 01:57:46;;;;;;;7.65;4.78;;;;;;;7.98;36.72;102849.00;5074019;28;20044;-60
2022/03/01 02:00:14;;;;;;;6.80;4.70;;;;;;;7.99;36.88;102850.72;5074366;28;20102;-62
2022/03/01 02:02:42;;;;;;;7.50;4.53;;;;;;;7.95;36.83;102856.88;5073943;28;20044;-62
2022/03/01 02:05:09;;;;;;;7.07;4.82;;;;;;;7.87;36.79;102853.47;5073130;28;20040;-62
2022/03/01 02:07:36;;;;;;;6.93;4.50;;;;;;;7.79;37.44;102857.94;5073823;28;20075;-62
2022/03/01 02:10:07;;;;;;;8.40;5.20;;;;;;;7.75;37.37;102861.47;5073932;28;20110;-63
2022/03/01 02:12:34;;;;;;;6.90;4.97;;;;;;;7.70;37.71;102858.03;5073782;28;20036;-64
2022/03/01 02:15:02;;;;;;;7.63;4.68;;;;;;;7.67;37.67;102858.94;5073974;28;20048;-62
2022/03/01 02:17:29;;;;;;;7.65;4.38;;;;;;;7.64;37.74;102857.22;5073836;28;20487;-63
2022/03/01 02:19:56;;;;;;;7.55;4.40;;;;;;;7.59;37.79;102856.41;5073616;28;20048;-60
2022/03/01 02:22:23;;;;;;;7.40;4.43;;;;;;;7.52;38.00;102859.94;5072977;28;20056;-62
2022/03/01 02:24:50;;;;;;;7.70;4.45;;;;;;;7.49;38.29;102854.75;5055336;28;20484;-63
2022/03/01 02:27:19;;;;;;;7.57;4.68;;;;;;;7.43;38.37;102855.69;5073553;28;20051;-60
2022/03/01 02:29:45;;;;;;;7.07;4.88;;;;;;;7.42;38.36;102853.09;5073062;28;20053;-61
2022/03/01 02:32:12;;;;;;;8.65;4.60;;;;;;;7.45;38.06;102858.25;5073678;28;20048;-60
2022/03/01 02:34:39;;;;;;;7.70;4.70;;;;;;;7.43;37.82;102858.28;5073147;28;20049;-60
2022/03/01 02:37:05;;;;;;;9.68;4.88;;;;;;;7.38;37.81;102854.84;5072422;28;20044;-60
2022/03/01 02:39:34;;;;;;;6.80;4.32;;;;;;;7.37;37.82;102852.25;5073261;28;20056;-63
2022/03/01 02:42:00;;;;;;;7.45;4.22;;;;;;;7.32;37.71;102860.13;5073389;28;20055;-60
2022/03/01 02:44:27;;;;;;;7.43;4.90;;;;;;;7.31;37.87;102858.38;5073284;28;20090;-60
2022/03/01 02:46:54;;;;;;;10.10;4.45;;;;;;;7.28;37.67;102859.28;5073232;28;20792;-60
2022/03/01 02:49:20;;;;;;;8.10;5.00;;;;;;;7.26;37.62;102854.97;5073188;28;20036;-61
2022/03/01 02:51:47;;;;;;;7.13;4.50;;;;;;;7.21;37.66;102860.19;5072949;28;20048;-60
2022/03/01 02:54:14;;;;;;;9.95;4.60;;;;;;;7.28;37.36;102853.22;5071369;28;20424;-60
2022/03/01 02:56:41;;;;;;;7.65;4.50;;;;;;;7.24;37.14;102860.19;5072541;28;20097;-63
2022/03/01 02:59:08;;;;;;;9.13;4.70;;;;;;;7.23;37.36;102863.69;5072646;28;20052;-60
2022/03/01 03:01:34;;;;;;;6.30;4.45;;;;;;;7.20;37.41;102858.50;5072800;28;20051;-60
2022/03/01 03:04:01;;;;;;;6.75;4.32;;;;;;;7.16;37.64;102862.88;5072812;28;20098;-61
2022/03/01 03:06:28;;;;;;;9.75;4.50;;;;;;;7.10;37.89;102864.69;5072762;28;20054;-60
2022/03/01 03:08:56;;;;;;;6.13;4.38;;;;;;;7.02;38.04;102862.97;5072611;28;20048;-60
2022/03/01 03:11:23;;;;;;;6.85;4.35;;;;;;;6.96;38.32;102860.41;5070822;28;20040;-60
2022/03/01 03:13:50;;;;;;;7.25;4.22;;;;;;;7.00;37.96;102856.91;5072617;28;20098;-60
2022/03/01 03:16:16;;;;;;;7.93;4.38;;;;;;;7.00;37.80;102856.91;5072697;28;20455;-59
2022/03/01 03:18:44;;;;;;;9.00;4.38;;;;;;;6.97;37.94;102859.53;5072288;28;20388;-64
2022/03/01 03:21:11;;;;;;;7.00;4.82;;;;;;;6.99;37.72;102863.00;5072444;28;20041;-60
2022/03/01 03:23:38;;;;;;;7.57;4.57;;;;;;;6.93;37.59;102859.56;5071973;28;20041;-61
2022/03/01 03:26:04;;;;;;;7.43;4.05;;;;;;;6.88;37.89;102853.50;5072408;28;20045;-60
2022/03/01 03:28:32;;;;;;;7.80;4.63;;;;;;;6.84;38.25;102856.16;5071205;28;20052;-63
2022/03/01 03:30:58;;;;;;;6.88;4.40;;;;;;;6.80;38.28;102859.63;5072462;28;20044;-60
2022/03/01 03:33:25;;;;;;;7.70;4.78;;;;;;;6.79;38.37;102863.16;5072231;28;20063;-59
2022/03/01 03:35:54;;;;;;;7.53;4.60;;;;;;;6.74;38.71;102864.03;5072120;28;20044;-60
2022/03/01 03:38:21;;;;;;;5.95;4.15;;;;;;;6.68;38.56;102862.34;5071927;28;20102;-63
2022/03/01 03:40:47;;;;;;;7.70;4.30;;;;;;;6.61;39.09;102864.09;5071952;28;20109;-60
2022/03/01 03:43:14;;;;;;;9.00;4.78;;;;;;;6.58;39.21;102860.63;5072172;28;20048;-59
2022/03/01 03:45:41;;;;;;;7.43;4.22;;;;;;;6.48;39.44;102865.06;5070489;28;20036;-60
2022/03/01 03:48:08;;;;;;;8.20;4.90;;;;;;;6.27;39.92;102871.22;5072046;28;20044;-60
2022/03/01 03:50:34;;;;;;;8.50;4.82;;;;;;;6.32;39.72;102872.97;5071919;28;20051;-61
2022/03/01 03:53:02;;;;;;;6.80;4.25;;;;;;;6.26;39.89;102869.50;5072131;28;20051;-61
2022/03/01 03:55:28;;;;;;;8.35;4.50;;;;;;;6.15;40.04;102877.38;5071881;28;20048;-59
2022/03/01 03:57:55;;;;;;;9.73;5.05;;;;;;;6.09;40.30;102869.56;5071815;28;20487;-64
2022/03/01 04:00:23;;;;;;;7.93;5.07;;;;;;;6.09;40.37;102870.44;5071943;28;20053;-63
2022/03/01 04:02:52;;;;;;;9.43;5.00;;;;;;;6.11;40.21;102870.44;5066858;28;20155;-60
2022/03/01 04:05:19;;;;;;;8.18;5.32;;;;;;;6.12;39.91;102872.16;5068616;28;20067;-60
2022/03/01 04:07:48;;;;;;;11.48;5.38;;;;;;;6.03;40.34;102863.50;5067908;28;20052;-59
2022/03/01 04:10:15;;;;;;;11.07;5.72;;;;;;;6.01;40.57;102867.00;5068345;28;20496;-60
2022/03/01 04:12:43;;;;;;;13.20;5.80;;;;;;;6.02;40.68;102866.13;5068082;28;20049;-62
2022/03/01 04:15:10;;;;;;;10.05;4.72;;;;;;;5.97;40.86;102873.91;5068323;28;20048;-59
2022/03/01 04:17:37;;;;;;;11.88;5.55;;;;;;;5.93;41.19;102877.41;5068323;28;20049;-62
2022/03/01 04:20:05;;;;;;;12.52;5.28;;;;;;;5.91;41.09;102871.31;5067729;28;20453;-60
2022/03/01 04:22:32;;;;;;;12.95;5.18;;;;;;;5.94;41.22;102871.34;5068464;28;20040;-61
2022/03/01 04:24:58;;;;;;;9.13;4.78;;;;;;;5.85;41.38;102867.00;5067763;28;20041;-61
2022/03/01 04:27:25;;;;;;;10.13;4.85;;;;;;;5.88;41.16;102872.19;5068088;28;20060;-59
2022/03/01 04:29:52;;;;;;;8.68;4.60;;;;;;;5.82;41.33;102868.75;5068044;28;20056;-59
2022/03/01 04:32:18;;;;;;;9.07;5.20;;;;;;;5.65;41.53;102871.38;5068242;28;20455;-60
2022/03/01 04:34:45;;;;;;;8.95;5.13;;;;;;;5.62;41.43;102867.03;5066873;28;20041;-60
2022/03/01 04:37:12;;;;;;;10.90;4.97;;;;;;;5.70;41.08;102869.63;5068172;28;20047;-60
2022/03/01 04:39:38;;;;;;;9.48;5.03;;;;;;;5.58;41.33;102865.31;5068070;28;20057;-60
2022/03/01 04:42:07;;;;;;;7.93;4.80;;;;;;;5.37;41.73;102871.38;5068397;28;20084;-61
2022/03/01 04:44:34;;;;;;;8.30;5.28;;;;;;;5.59;41.35;102871.38;5068123;28;20044;-60
2022/03/01 04:47:03;;;;;;;9.40;5.15;;;;;;;5.66;40.83;102868.78;5068277;28;20052;-62
2022/03/01 04:49:31;;;;;;;9.73;5.82;;;;;;;5.59;41.36;102869.66;5068131;28;20439;-59
2022/03/01 04:51:57;;;;;;;8.70;5.20;;;;;;;5.71;41.25;102872.25;5067025;28;20072;-59
2022/03/01 04:54:24;;;;;;;9.68;5.28;;;;;;;5.70;41.27;102867.91;5067952;28;20123;-60
2022/03/01 04:56:51;;;;;;;9.90;5.30;;;;;;;5.71;41.56;102860.94;5067527;28;20055;-60
2022/03/01 04:59:17;;;;;;;10.43;5.93;;;;;;;5.76;41.73;102866.16;5068105;28;20044;-60
2022/03/01 05:01:44;;;;;;;13.23;5.18;;;;;;;5.78;41.60;102865.28;5067672;28;20454;-60
2022/03/01 05:04:11;;;;;;;9.80;5.40;;;;;;;5.75;41.95;102865.28;5067834;28;20515;-60
2022/03/01 05:06:38;;;;;;;11.68;6.10;;;;;;;5.78;42.47;102859.22;5068081;28;20044;-60
2022/03/01 05:09:05;;;;;;;10.35;6.10;;;;;;;5.78;42.76;102856.59;5067123;28;20056;-61
2022/03/01 05:11:33;;;;;;;10.30;5.85;;;;;;;5.75;42.92;102856.59;5067747;28;20041;-60
2022/03/01 05:14:00;;;;;;;10.20;5.35;;;;;;;5.72;43.33;102853.13;5068027;28;20437;-60
2022/03/01 05:16:27;;;;;;;11.65;5.97;;;;;;;5.76;43.44;102859.19;5067858;28;20052;-60
2022/03/01 05:18:54;;;;;;;11.30;5.53;;;;;;;5.71;43.69;102858.34;5069500;28;20523;-60
2022/03/01 05:21:20;;;;;;;9.23;5.00;;;;;;;5.69;43.98;102857.50;5071539;28;20045;-60
2022/03/01 05:23:47;;;;;;;9.25;5.82;;;;;;;5.66;44.16;102855.75;5070927;28;20041;-59
2022/03/01 05:26:14;;;;;;;8.82;5.82;;;;;;;5.64;44.44;102865.31;5069652;28;20090;-63
2022/03/01 05:28:41;;;;;;;9.93;5.72;;;;;;;5.62;44.64;102863.56;5071313;28;20057;-60
2022/03/01 05:31:08;;;;;;;11.75;6.22;;;;;;;5.59;44.90;102864.44;5071503;28;20492;-60
2022/03/01 05:33:35;;;;;;;10.98;6.10;;;;;;;5.54;44.83;102869.66;5071336;28;20056;-61
2022/03/01 05:36:02;;;;;;;9.68;5.38;;;;;;;5.56;45.15;102869.63;5070245;28;20052;-60
2022/03/01 05:38:29;;;;;;;12.43;5.60;;;;;;;5.57;45.11;102860.97;5071143;28;20078;-60
2022/03/01 05:40:56;;;;;;;9.18;5.47;;;;;;;5.61;45.32;102857.50;5070099;28;20040;-60
2022/03/01 05:43:23;;;;;;;9.55;5.90;;;;;;;5.54;45.56;102864.44;5071222;28;20045;-60
2022/03/01 05:45:49;;;;;;;12.77;5.43;;;;;;;5.50;45.63;102869.69;5070764;28;20115;-60
2022/03/01 05:48:16;;;;;;;8.88;5.68;;;;;;;5.45;45.91;102868.81;5071126;28;20051;-59
2022/03/01 05:50:44;;;;;;;10.95;5.55;;;;;;;5.43;45.87;102865.34;5070084;28;20052;-60
2022/03/01 05:53:10;;;;;;;11.35;6.20;;;;;;;5.40;45.92;102866.19;5070856;28;20132;-60
2022/03/01 05:55:37;;;;;;;11.43;6.18;;;;;;;5.39;46.09;102864.47;5070690;28;20646;-60
2022/03/01 05:58:04;;;;;;;10.25;5.70;;;;;;;5.32;46.31;102876.63;5069796;28;20102;-60
2022/03/01 06:00:31;;;;;;;9.30;5.30;;;;;;;5.37;46.10;102874.88;5070970;28;20071;-60
2022/03/01 06:02:58;;;;;;;14.52;6.07;;;;;;;5.39;46.20;102886.16;5070518;28;20071;-61
2022/03/01 06:05:27;;;;;;;11.02;5.90;;;;;;;5.35;46.44;102888.78;5070828;28;20102;-63
2022/03/01 06:07:55;;;;;;;11.65;6.22;;;;;;;5.32;46.29;102880.94;5070333;28;20094;-61
2022/03/01 06:10:23;;;;;;;13.27;5.53;;;;;;;5.26;46.57;102878.34;5070844;28;20048;-60
2022/03/01 06:12:50;;;;;;;12.18;5.93;;;;;;;5.23;46.52;102882.69;5070493;28;20058;-60
2022/03/01 06:15:16;;;;;;;9.88;5.55;;;;;;;5.32;46.16;102891.34;5069561;28;20110;-63
2022/03/01 06:17:43;;;;;;;11.65;6.38;;;;;;;5.33;46.38;102883.56;5070189;28;20111;-59
2022/03/01 06:20:10;;;;;;;13.70;6.28;;;;;;;5.36;46.38;102891.38;5070147;28;20059;-60
2022/03/01 06:22:37;;;;;;;11.05;6.25;;;;;;;5.31;46.68;102887.91;5070484;28;20072;-63
2022/03/01 06:25:09;;;;;;;10.20;5.90;;;;;;;5.37;46.44;102890.50;5070158;28;20067;-60
2022/03/01 06:27:37;;;;;;;17.45;7.03;;;;;;;5.46;46.50;102892.25;5070134;28;20048;-60
2022/03/01 06:30:05;;;;;;;12.50;6.68;;;;;;;5.48;46.55;102898.28;5069004;28;20048;-60
2022/03/01 06:32:32;;;;;;;12.43;7.40;;;;;;;5.52;46.39;102899.16;5070448;28;20041;-61
2022/03/01 06:34:59;;;;;;;13.35;7.53;;;;;;;5.49;46.70;102905.25;5069902;28;20048;-63
2022/03/01 06:37:38;;;;;;;14.23;7.97;;;;;;;5.43;46.70;102894.81;5062982;28;20826;-60
2022/03/01 06:40:06;;;;;;;15.52;7.25;;;;;;;5.49;46.27;102902.63;5069985;28;20546;-60
2022/03/01 06:42:34;;;;;;;14.40;6.97;;;;;;;5.51;46.70;102905.22;5069671;28;20047;-63
2022/03/01 06:45:03;;;;;;;15.75;7.20;;;;;;;5.55;46.81;102907.00;5069074;28;20059;-61
2022/03/01 06:47:30;;;;;;;16.58;7.82;;;;;;;5.59;46.66;102900.91;5069081;28;20048;-63
2022/03/01 06:49:56;;;;;;;15.23;8.13;;;;;;;5.56;47.07;102893.97;5070106;28;20052;-60
2022/03/01 06:52:23;;;;;;;16.60;7.70;;;;;;;5.53;47.12;102906.97;5069491;28;20040;-60
2022/03/01 06:54:50;;;;;;;15.82;7.28;;;;;;;5.57;47.30;102915.66;5069441;28;20044;-60
2022/03/01 06:57:17;;;;;;;15.68;8.10;;;;;;;5.64;47.30;102906.13;5069625;28;20044;-60
2022/03/01 06:59:43;;;;;;;15.98;7.82;;;;;;;5.70;47.32;102908.69;5069618;28;20075;-60
2022/03/01 07:02:10;;;;;;;12.27;6.95;;;;;;;5.80;47.17;102912.16;5068084;28;20044;-60
2022/03/01 07:04:40;;;;;;;18.70;7.40;;;;;;;5.88;47.30;102920.84;5069542;28;20044;-59
2022/03/01 07:07:06;;;;;;;11.73;6.88;;;;;;;5.96;47.05;102915.63;5069699;28;20050;-60
2022/03/01 07:09:33;;;;;;;12.40;8.07;;;;;;;6.00;46.97;102915.63;5069165;28;20041;-60
2022/03/01 07:12:00;;;;;;;15.93;8.07;;;;;;;6.17;46.87;102914.72;5069527;28;20094;-60
2022/03/01 07:14:26;;;;;;;13.70;7.90;;;;;;;6.25;46.72;102917.28;5069233;28;20052;-60
2022/03/01 07:16:53;;;;;;;15.90;7.88;;;;;;;6.36;46.96;102925.94;5069429;28;20055;-61
2022/03/01 07:19:20;;;;;;;17.75;8.55;;;;;;;6.60;46.39;102922.41;5067703;28;20052;-61
2022/03/01 07:21:47;;;;;;;15.40;8.35;;;;;;;6.85;46.15;102914.44;5037463;28;20048;-60
2022/03/01 07:24:14;;;;;;;17.58;8.82;;;;;;;6.98;45.99;102920.44;5069045;28;20071;-64
2022/03/01 07:26:41;;;;;;;18.17;8.48;;;;;;;7.14;45.69;102916.84;5069365;28;20447;-60
2022/03/01 07:29:07;;;;;;;18.42;7.97;;;;;;;7.18;46.00;102912.47;5069158;28;20045;-59
2022/03/01 07:31:34;;;;;;;14.38;8.27;;;;;;;7.27;45.83;102920.22;5068799;28;20048;-60
2022/03/01 07:34:02;;;;;;;16.05;8.18;;;;;;;7.66;45.63;102915.53;5065963;28;20066;-60
2022/03/01 07:36:28;;;;;;;21.05;8.75;;;;;;;7.57;45.83;102906.91;5067408;28;20040;-58
2022/03/01 07:38:55;;;;;;;16.35;8.25;;;;;;;7.70;45.71;102902.47;5067880;28;20101;-59
2022/03/01 07:41:21;;;;;;;15.35;9.23;;;;;;;7.77;45.36;102909.34;5067935;28;20041;-63
2022/03/01 07:43:48;;;;;;;17.25;8.98;;;;;;;7.91;45.33;102902.25;5068094;28;20048;-62
2022/03/01 07:46:15;;;;;;;16.13;8.52;;;;;;;8.01;45.03;102905.59;5068427;28;20048;-58
2022/03/01 07:48:43;;;;;;;15.55;8.50;;;;;;;8.00;45.03;102907.38;5068066;28;20052;-59
2022/03/01 07:51:10;;;;;;;13.95;7.65;;;;;;;8.03;45.00;102909.09;5063657;28;20573;-58
2022/03/01 07:53:42;;;;;;;16.13;9.60;;;;;;;8.14;44.83;102904.59;5067634;28;20041;-60
2022/03/01 07:56:11;;;;;;;22.98;8.88;;;;;;;8.29;44.64;102905.28;5067230;28;20076;-60
2022/03/01 07:58:38;;;;;;;18.80;8.20;;;;;;;8.30;44.60;102896.56;5068344;28;20484;-61
2022/03/01 08:01:04;;;;;;;15.25;8.20;;;;;;;8.33;44.30;102900.00;5068263;28;20057;-60
2022/03/01 08:03:31;;;;;;;17.27;8.57;;;;;;;8.59;44.01;102897.97;5068090;28;20052;-58
2022/03/01 08:05:58;;;;;;;17.75;8.85;;;;;;;8.81;43.46;102895.91;5068082;28;20055;-59
2022/03/01 08:08:27;;;;;;;16.65;8.88;;;;;;;8.79;43.56;102900.31;5067837;28;20048;-58
2022/03/01 08:10:53;;;;;;;19.35;8.88;;;;;;;8.97;43.15;102892.19;5065933;28;20063;-61
2022/03/01 08:13:39;;;;;;;16.38;9.23;;;;;;;9.10;42.96;102892.88;5065302;28;20078;-60
2022/03/01 08:16:06;;;;;;;13.52;7.70;;;;;;;9.18;42.90;102895.38;5067631;28;20045;-60
2022/03/01 08:18:33;;;;;;;21.63;8.57;;;;;;;9.33;42.50;102886.38;5067627;28;20040;-60
2022/03/01 08:21:00;;;;;;;26.17;8.77;;;;;;;9.53;41.98;102883.41;5067963;28;20129;-60
2022/03/01 08:23:27;;;;;;;16.10;8.25;;;;;;;9.67;41.97;102874.47;5067500;28;20480;-60
2022/03/01 08:25:57;;;;;;;10.20;5.85;;;;;;;9.71;41.31;102876.13;5066922;28;20385;-63
2022/03/01 08:28:26;;;;;;;11.48;6.07;;;;;;;9.70;41.09;102877.00;5066344;28;20059;-60
2022/03/01 08:30:56;;;;;;;10.82;5.57;;;;;;;9.70;40.50;102871.75;5067411;28;20047;-62
2022/03/01 08:33:24;;;;;;;12.63;5.75;;;;;;;9.89;40.02;102870.53;5067249;28;20415;-63
2022/03/01 08:35:53;;;;;;;8.23;5.15;;;;;;;10.02;39.23;102868.53;5067261;28;20064;-66
2022/03/01 08:38:19;;;;;;;12.25;5.70;;;;;;;10.25;38.69;102862.81;5066557;28;20045;-64
2022/03/01 08:40:46;;;;;;;11.80;5.40;;;;;;;10.43;37.96;102863.34;5066604;28;20147;-60
2022/03/01 08:43:13;;;;;;;8.43;5.25;;;;;;;10.49;37.49;102865.84;5066238;28;20041;-65
2022/03/01 08:45:41;;;;;;;10.18;5.07;;;;;;;10.59;37.09;102867.34;5067070;28;20056;-59
2022/03/01 08:48:08;;;;;;;11.75;5.13;;;;;;;10.91;36.28;102867.53;5067036;28;20072;-60
2022/03/01 08:50:35;;;;;;;13.43;4.80;;;;;;;11.10;35.70;102863.53;5066285;28;20049;-61
2022/03/01 08:53:14;;;;;;;9.98;5.20;;;;;;;11.21;34.94;102855.38;5067090;28;20059;-61
2022/03/01 08:55:41;;;;;;;9.80;5.40;;;;;;;11.17;34.76;102851.09;5071613;28;20056;-61
2022/03/01 08:58:08;;;;;;;10.05;6.35;;;;;;;11.37;33.99;102837.44;5071750;28;20250;-61
2022/03/01 09:00:35;;;;;;;13.00;5.20;;;;;;;11.60;33.29;102841.22;5069871;28;20048;-61
2022/03/01 09:03:03;;;;;;;23.67;19.42;;;;;;;11.57;32.71;102841.31;5071417;28;20045;-64
2022/03/01 09:05:32;;;;;;;12.10;7.60;;;;;;;11.79;31.94;102835.47;5070981;28;20131;-60
2022/03/01 09:07:59;;;;;;;18.17;7.28;;;;;;;11.99;31.64;102832.31;5069326;28;20044;-61
2022/03/01 09:10:26;;;;;;;71.13;46.45;;;;;;;12.33;31.11;102837.44;5067775;28;20048;-60
2022/03/01 09:12:54;;;;;;;70.20;46.75;;;;;;;12.54;30.61;102827.13;5070014;28;20045;-60
2022/03/01 09:15:25;;;;;;;17.55;11.38;;;;;;;12.78;30.04;102836.03;5070575;28;20053;-61
2022/03/01 09:17:52;;;;;;;10.55;7.60;;;;;;;12.79;29.92;102824.59;5064822;28;20090;-61
2022/03/01 09:20:19;;;;;;;10.80;7.30;;;;;;;12.91;29.30;102820.66;5069177;28;20120;-58
2022/03/01 09:22:46;;;;;;;12.10;8.93;;;;;;;12.95;28.83;102824.06;5069054;28;20509;-60
2022/03/01 09:25:12;;;;;;;9.35;6.50;;;;;;;13.07;28.39;102821.03;5069777;28;20044;-60
2022/03/01 09:27:39;;;;;;;11.30;7.65;;;;;;;13.28;27.91;102816.81;5069906;28;20049;-61
2022/03/01 09:30:07;;;;;;;9.85;7.60;;;;;;;13.32;27.50;102821.06;5069032;28;20061;-60
2022/03/01 09:32:33;;;;;;;7.88;6.40;;;;;;;13.46;27.08;102812.69;5069480;28;20484;-61
2022/03/01 09:35:00;;;;;;;9.93;8.70;;;;;;;13.47;27.04;102811.78;5066236;28;20504;-61
2022/03/01 09:37:31;;;;;;;13.38;9.90;;;;;;;13.60;26.53;102803.41;5069369;28;20102;-61
2022/03/01 09:39:59;;;;;;;9.20;5.45;;;;;;;13.73;26.41;102799.41;5064889;28;20141;-64
2022/03/01 09:42:27;;;;;;;27.80;19.50;;;;;;;13.90;26.09;102805.84;5069726;28;20504;-59
2022/03/01 09:44:55;;;;;;;17.70;13.68;;;;;;;14.15;25.46;102798.69;5076609;28;20044;-61
2022/03/01 09:47:22;;;;;;;29.95;22.13;;;;;;;14.29;25.03;102797.31;5074367;28;20076;-60
2022/03/01 09:49:48;;;;;;;18.38;14.23;;;;;;;14.51;24.62;102794.66;5077353;28;20037;-61
2022/03/01 09:52:18;;;;;;;9.10;7.00;;;;;;;14.52;24.53;102796.38;5075904;28;20044;-59
2022/03/01 09:54:48;;;;;;;11.40;7.53;;;;;;;14.56;24.04;102787.41;5073620;28;20045;-59
2022/03/01 09:57:15;;;;;;;12.38;8.48;;;;;;;14.94;23.71;102781.50;5075208;28;20075;-62
2022/03/01 09:59:42;;;;;;;16.85;11.30;;;;;;;15.08;23.25;102783.53;5074723;28;20040;-65
2022/03/01 10:02:09;;;;;;;15.95;8.75;;;;;;;14.88;23.51;102785.28;5073255;28;20076;-63
2022/03/01 10:04:57;;;;;;;15.18;9.68;;;;;;;15.15;23.12;102774.44;5073558;28;20051;-64
2022/03/01 10:07:25;;;;;;;16.13;9.43;;;;;;;15.33;22.84;102763.03;5071208;28;20102;-64
2022/03/01 10:09:52;;;;;;;12.85;7.72;;;;;;;15.48;22.75;102761.50;5072819;28;20044;-64
2022/03/01 10:12:29;;;;;;;7.65;5.10;;;;;;;15.65;22.55;102758.06;5076345;28;20416;-60
2022/03/01 10:15:06;;;;;;;12.45;8.70;;;;;;;15.73;22.49;102765.69;5073385;28;20550;-64
2022/03/01 10:17:37;;;;;;;11.38;7.82;;;;;;;15.97;22.45;102761.06;5071529;28;20416;-65
2022/03/01 10:20:08;;;;;;;12.05;9.38;;;;;;;16.05;22.44;102757.16;5069212;28;20068;-62
2022/03/01 10:22:46;;;;;;;11.95;8.63;;;;;;;16.10;22.23;102761.31;5068963;28;20048;-62
2022/03/01 10:25:15;;;;;;;12.77;9.57;;;;;;;16.23;22.03;102751.00;5069099;28;20053;-61
2022/03/01 10:27:50;;;;;;;12.77;9.07;;;;;;;16.47;22.11;102748.94;5069055;28;20040;-61
2022/03/01 10:30:24;;;;;;;18.73;12.77;;;;;;;16.56;21.83;102739.66;5066802;28;20758;-61
2022/03/01 10:32:51;;;;;;;32.10;20.52;;;;;;;16.45;21.57;102726.09;5068161;28;20076;-61
2022/03/01 10:35:18;;;;;;;9.50;6.47;;;;;;;16.47;21.29;102727.72;5067049;28;20053;-62
2022/03/01 10:37:49;;;;;;;14.60;10.25;;;;;;;16.57;21.49;102721.97;5067917;28;20090;-61
2022/03/01 10:40:22;;;;;;;18.38;11.77;;;;;;;16.75;21.07;102717.53;5068278;28;20132;-61
2022/03/01 10:43:09;;;;;;;10.48;7.55;;;;;;;16.83;20.78;102718.00;5068073;28;20052;-60
2022/03/01 10:45:49;;;;;;;17.58;11.43;;;;;;;17.05;20.77;102711.59;5066671;28;20055;-61
2022/03/01 10:48:29;;;;;;;24.48;11.48;;;;;;;17.01;21.07;102715.34;5067989;28;20124;-60
2022/03/01 10:51:10;;;;;;;17.73;9.93;;;;;;;16.90;20.89;102706.13;5066217;28;20044;-60
2022/03/01 10:53:38;;;;;;;43.40;21.20;;;;;;;17.18;20.62;102699.41;5065789;28;20059;-61
2022/03/01 10:56:08;;;;;;;19.92;12.45;;;;;;;17.12;20.70;102689.97;5067524;28;20063;-61
2022/03/01 10:58:36;;;;;;;9.40;7.68;;;;;;;17.10;20.57;102689.22;5066446;28;20059;-62
2022/03/01 11:01:04;;;;;;;11.35;8.07;;;;;;;17.34;20.76;102686.16;5068941;28;20059;-61
2022/03/01 11:03:31;;;;;;;7.60;6.30;;;;;;;17.70;20.13;102670.94;5067904;28;20044;-62
2022/03/01 11:06:00;;;;;;;19.23;13.43;;;;;;;17.63;20.25;102670.44;5067117;28;20055;-62
2022/03/01 11:08:34;;;;;;;8.07;6.68;;;;;;;17.92;20.01;102663.47;5066778;28;20045;-62
2022/03/01 11:11:05;;;;;;;90.88;56.80;;;;;;;18.06;20.22;102657.38;5067670;28;20056;-63
2022/03/01 11:13:35;;;;;;;33.72;25.42;;;;;;;17.67;20.05;102650.72;5067057;28;20178;-62
2022/03/01 11:16:21;;;;;;;14.07;11.55;;;;;;;17.81;19.64;102641.97;5066327;28;20048;-62
2022/03/01 11:18:59;;;;;;;10.38;7.82;;;;;;;18.08;19.99;102630.72;5066110;28;20040;-62
2022/03/01 11:21:27;;;;;;;12.70;7.75;;;;;;;18.08;19.89;102626.28;5065933;28;20052;-62
2022/03/01 11:23:55;;;;;;;19.55;13.50;;;;;;;18.03;19.78;102619.50;5064763;28;20045;-61
2022/03/01 11:26:22;;;;;;;33.30;21.30;;;;;;;17.91;20.17;102619.25;5067129;28;20048;-62
2022/03/01 11:28:54;;;;;;;20.08;14.20;;;;;;;17.89;19.85;102620.28;5067689;28;20060;-58